createdAt,value
2022-09-24T00:02:24.200Z,43.94
2022-09-24T00:04:52.626Z,43.70
2022-09-24T00:07:21.140Z,44.05
2022-09-24T00:09:49.593Z,43.90
2022-09-24T00:12:18.971Z,43.85
2022-09-24T00:14:48.931Z,44.10
2022-09-24T00:17:17.306Z,43.75
2022-09-24T00:19:45.771Z,43.87
2022-09-24T00:22:14.248Z,44.06
2022-09-24T00:25:00.279Z,43.63
2022-09-24T00:27:29.251Z,43.66
2022-09-24T00:29:59.407Z,43.75
2022-09-24T00:32:27.951Z,43.78
2022-09-24T00:34:56.406Z,43.58
2022-09-24T00:37:24.884Z,43.68
2022-09-24T00:39:53.485Z,43.62
2022-09-24T00:42:22.904Z,43.53
2022-09-24T00:44:56.254Z,43.66
2022-09-24T00:47:35.707Z,43.28
2022-09-24T00:50:19.369Z,43.22
2022-09-24T00:52:52.763Z,43.55
2022-09-24T00:55:21.530Z,43.35
2022-09-24T00:57:50.389Z,43.68
2022-09-24T01:00:19.299Z,43.74
2022-09-24T01:02:49.921Z,43.55
2022-09-24T01:05:19.624Z,43.76
2022-09-24T01:07:49.036Z,43.66
2022-09-24T01:10:38.235Z,43.60
2022-09-24T01:13:15.030Z,43.50
2022-09-24T01:15:46.207Z,43.23
2022-09-24T01:18:19.346Z,43.43
2022-09-24T01:21:11.114Z,42.96
2022-09-24T01:24:27.783Z,43.08
2022-09-24T01:27:07.978Z,42.74
2022-09-24T01:29:59.594Z,43.03
2022-09-24T01:32:33.425Z,43.27
2022-09-24T01:35:05.025Z,43.13
2022-09-24T01:37:35.271Z,43.30
2022-09-24T01:40:04.553Z,43.37
2022-09-24T01:42:35.340Z,43.15
2022-09-24T01:45:06.518Z,43.30
2022-09-24T01:47:39.920Z,43.26
2022-09-24T01:50:10.007Z,42.92
2022-09-24T01:52:44.173Z,42.72
2022-09-24T01:55:15.075Z,42.85
2022-09-24T01:57:45.088Z,42.78
2022-09-24T02:00:16.503Z,42.69
2022-09-24T02:02:47.709Z,42.77
2022-09-24T02:05:21.207Z,42.65
2022-09-24T02:07:54.143Z,42.59
2022-09-24T02:10:22.644Z,43.11
2022-09-24T02:12:54.004Z,42.77
2022-09-24T02:15:31.419Z,42.87
2022-09-24T02:18:04.645Z,42.42
2022-09-24T02:20:33.289Z,42.70
2022-09-24T02:23:01.724Z,42.52
2022-09-24T02:25:32.561Z,42.58
2022-09-24T02:28:00.939Z,42.68
2022-09-24T02:30:31.286Z,42.45
2022-09-24T02:32:59.751Z,42.72
2022-09-24T02:35:27.348Z,42.39
2022-09-24T02:37:55.754Z,42.76
2022-09-24T02:40:24.743Z,42.73
2022-09-24T02:42:53.294Z,42.42
2022-09-24T02:45:21.875Z,42.39
2022-09-24T02:47:52.293Z,42.67
2022-09-24T02:50:20.962Z,42.56
2022-09-24T02:52:49.446Z,42.47
2022-09-24T02:55:18.225Z,42.59
2022-09-24T02:57:47.645Z,42.59
2022-09-24T03:00:17.836Z,42.43
2022-09-24T03:02:47.953Z,42.47
2022-09-24T03:05:18.624Z,42.33
2022-09-24T03:07:47.089Z,42.28
2022-09-24T03:10:15.888Z,42.53
2022-09-24T03:12:44.385Z,42.47
2022-09-24T03:15:12.902Z,42.35
2022-09-24T03:17:41.486Z,42.36
2022-09-24T03:20:10.400Z,42.37
2022-09-24T03:22:40.180Z,42.06
2022-09-24T03:25:11.192Z,42.03
2022-09-24T03:27:39.670Z,42.36
2022-09-24T03:30:27.487Z,42.09
2022-09-24T03:32:55.904Z,42.38
2022-09-24T03:35:24.478Z,42.27
2022-09-24T03:37:54.395Z,41.96
2022-09-24T03:40:23.017Z,42.07
2022-09-24T03:42:51.645Z,41.96
2022-09-24T03:45:20.127Z,41.88
2022-09-24T03:47:48.908Z,42.24
2022-09-24T03:50:18.049Z,42.11
2022-09-24T03:52:46.595Z,41.95
2022-09-24T03:55:16.622Z,41.78
2022-09-24T03:57:45.094Z,42.00
2022-09-24T04:00:14.589Z,42.13
2022-09-24T04:02:43.370Z,41.77
2022-09-24T04:05:11.875Z,41.96
2022-09-24T04:07:40.475Z,42.03
2022-09-24T04:10:10.142Z,41.67
2022-09-24T04:12:40.044Z,41.99
2022-09-24T04:15:09.654Z,42.09
2022-09-24T04:17:38.182Z,41.69
2022-09-24T04:20:09.109Z,41.61
2022-09-24T04:22:37.619Z,41.59
2022-09-24T04:25:11.390Z,42.26
2022-09-24T04:27:44.069Z,41.70
2022-09-24T04:30:14.261Z,41.93
2022-09-24T04:32:43.071Z,42.04
2022-09-24T04:35:11.670Z,41.83
2022-09-24T04:37:40.193Z,42.22
2022-09-24T04:40:10.414Z,42.08
2022-09-24T04:42:38.997Z,42.19
2022-09-24T04:45:10.618Z,42.02
2022-09-24T04:47:40.619Z,42.13
2022-09-24T04:50:11.444Z,42.26
2022-09-24T04:52:40.104Z,42.41
2022-09-24T04:55:10.132Z,42.26
2022-09-24T04:57:38.564Z,42.33
2022-09-24T05:00:10.732Z,42.05
2022-09-24T05:02:39.299Z,41.92
2022-09-24T05:05:08.774Z,42.28
2022-09-24T05:07:37.566Z,41.89
2022-09-24T05:10:07.629Z,42.08
2022-09-24T05:12:36.583Z,42.26
2022-09-24T05:15:06.280Z,42.05
2022-09-24T05:17:39.426Z,42.14
2022-09-24T05:20:10.777Z,42.59
2022-09-24T05:22:42.914Z,41.95
2022-09-24T05:25:12.488Z,42.34
2022-09-24T05:27:44.944Z,42.18
2022-09-24T05:30:14.316Z,42.04
2022-09-24T05:32:44.225Z,42.31
2022-09-24T05:35:13.885Z,42.23
2022-09-24T05:37:42.674Z,42.26
2022-09-24T05:40:29.489Z,41.99
2022-09-24T05:43:02.229Z,41.88
2022-09-24T05:45:30.667Z,42.52
2022-09-24T05:48:01.002Z,42.36
2022-09-24T05:50:29.481Z,42.20
2022-09-24T05:52:57.923Z,42.37
2022-09-24T05:55:30.168Z,42.65
2022-09-24T05:58:05.430Z,41.94
2022-09-24T06:00:34.252Z,42.14
2022-09-24T06:03:09.027Z,41.90
2022-09-24T06:05:37.677Z,42.48
2022-09-24T06:08:06.249Z,41.98
2022-09-24T06:10:34.664Z,42.18
2022-09-24T06:13:03.814Z,42.53
2022-09-24T06:15:32.389Z,42.10
2022-09-24T06:18:00.895Z,42.11
2022-09-24T06:20:30.799Z,42.14
2022-09-24T06:22:59.278Z,42.11
2022-09-24T06:25:27.764Z,42.00
2022-09-24T06:28:00.781Z,42.20
2022-09-24T06:30:29.993Z,42.00
2022-09-24T06:33:05.477Z,41.66
2022-09-24T06:35:36.976Z,42.42
2022-09-24T06:38:05.788Z,41.96
2022-09-24T06:40:37.314Z,42.22
2022-09-24T06:43:06.770Z,42.36
2022-09-24T06:45:35.803Z,42.16
2022-09-24T06:48:05.584Z,42.13
2022-09-24T06:50:36.246Z,42.62
2022-09-24T06:53:06.718Z,42.09
2022-09-24T06:55:36.055Z,42.51
2022-09-24T06:58:06.147Z,42.29
2022-09-24T07:00:35.023Z,42.34
2022-09-24T07:03:03.565Z,42.67
2022-09-24T07:05:32.037Z,42.51
2022-09-24T07:08:01.933Z,42.62
2022-09-24T07:10:31.442Z,42.24
2022-09-24T07:12:59.900Z,42.84
2022-09-24T07:15:28.674Z,43.27
2022-09-24T07:17:57.421Z,42.83
2022-09-24T07:20:28.354Z,43.24
2022-09-24T07:22:56.920Z,43.09
2022-09-24T07:25:26.971Z,42.93
2022-09-24T07:27:55.993Z,43.43
2022-09-24T07:30:24.474Z,43.05
2022-09-24T07:32:56.823Z,42.03
2022-09-24T07:35:25.371Z,43.05
2022-09-24T07:38:01.051Z,41.74
2022-09-24T07:40:31.531Z,40.87
2022-09-24T07:43:00.190Z,40.50
2022-09-24T07:45:29.833Z,43.44
2022-09-24T07:47:59.970Z,41.14
2022-09-24T07:50:29.033Z,43.08
2022-09-24T07:52:57.546Z,43.54
2022-09-24T07:55:26.103Z,43.67
2022-09-24T07:57:57.919Z,43.52
2022-09-24T08:00:26.538Z,43.40
2022-09-24T08:02:56.595Z,44.10
2022-09-24T08:05:25.536Z,43.69
2022-09-24T08:07:54.159Z,44.72
2022-09-24T08:10:23.187Z,44.63
2022-09-24T08:12:51.654Z,44.39
2022-09-24T08:15:22.916Z,44.23
2022-09-24T08:17:51.802Z,44.68
2022-09-24T08:20:22.179Z,44.37
2022-09-24T08:22:50.664Z,44.53
2022-09-24T08:25:19.160Z,44.29
2022-09-24T08:27:47.731Z,44.34
2022-09-24T08:30:16.465Z,44.76
2022-09-24T08:32:49.329Z,44.63
2022-09-24T08:35:17.887Z,45.00
2022-09-24T08:37:46.545Z,44.34
2022-09-24T08:40:17.387Z,44.70
2022-09-24T08:42:49.835Z,44.63
2022-09-24T08:45:36.446Z,44.98
2022-09-24T08:48:11.568Z,45.28
2022-09-24T08:50:40.930Z,45.11
2022-09-24T08:53:15.965Z,45.08
2022-09-24T08:55:46.671Z,45.13
2022-09-24T08:58:32.979Z,45.06
2022-09-24T09:01:08.655Z,45.17
2022-09-24T09:03:42.710Z,44.75
2022-09-24T09:06:14.266Z,45.03
2022-09-24T09:09:05.891Z,45.02
2022-09-24T09:11:37.099Z,45.29
2022-09-24T09:14:08.861Z,45.08
2022-09-24T09:16:44.278Z,45.10
2022-09-24T09:19:15.699Z,45.23
2022-09-24T09:21:46.945Z,44.87
2022-09-24T09:24:19.241Z,44.91
2022-09-24T09:26:49.751Z,45.14
2022-09-24T09:29:18.141Z,44.70
2022-09-24T09:31:56.518Z,45.15
2022-09-24T09:34:38.960Z,45.08
2022-09-24T09:37:15.246Z,45.13
2022-09-24T09:39:49.645Z,45.06
2022-09-24T09:42:28.343Z,45.31
2022-09-24T09:44:57.169Z,45.21
2022-09-24T09:47:36.200Z,44.72
2022-09-24T09:50:12.439Z,45.02
2022-09-24T09:52:41.022Z,44.71
2022-09-24T09:55:20.405Z,45.26
2022-09-24T09:57:48.918Z,45.33
2022-09-24T10:00:27.872Z,45.86
2022-09-24T10:02:56.513Z,45.60
2022-09-24T10:05:28.972Z,44.90
2022-09-24T10:07:58.257Z,46.64
2022-09-24T10:10:27.558Z,46.05
2022-09-24T10:12:56.537Z,45.77
2022-09-24T10:15:25.904Z,45.93
2022-09-24T10:17:55.350Z,46.12
2022-09-24T10:20:28.398Z,46.22
2022-09-24T10:22:58.153Z,46.41
2022-09-24T10:25:28.213Z,46.43
2022-09-24T10:28:20.402Z,46.22
2022-09-24T10:30:54.157Z,46.15
2022-09-24T10:33:22.754Z,46.39
2022-09-24T10:35:52.565Z,46.47
2022-09-24T10:38:25.072Z,46.69
2022-09-24T10:40:53.598Z,46.44
2022-09-24T10:43:23.282Z,47.07
2022-09-24T10:46:21.862Z,47.18
2022-09-24T10:48:53.289Z,47.14
2022-09-24T10:51:30.041Z,46.72
2022-09-24T10:54:16.319Z,47.18
2022-09-24T10:56:46.842Z,47.05
2022-09-24T10:59:32.279Z,46.88
2022-09-24T11:02:18.996Z,47.24
2022-09-24T11:04:52.009Z,44.77
2022-09-24T11:07:44.290Z,45.94
2022-09-24T11:10:23.910Z,43.17
2022-09-24T11:13:02.783Z,44.85
2022-09-24T11:15:48.518Z,45.92
2022-09-24T11:18:29.692Z,45.88
2022-09-24T11:21:02.502Z,46.57
2022-09-24T11:23:48.005Z,46.50
2022-09-24T11:26:24.615Z,46.45
2022-09-24T11:29:13.314Z,47.28
2022-09-24T11:31:45.179Z,46.65
2022-09-24T11:34:27.428Z,46.54
2022-09-24T11:37:18.504Z,46.70
2022-09-24T11:40:00.478Z,47.67
2022-09-24T11:42:31.444Z,46.95
2022-09-24T11:45:38.096Z,47.30
2022-09-24T11:48:22.762Z,47.31
2022-09-24T11:51:01.115Z,46.40
2022-09-24T11:53:35.864Z,46.49
2022-09-24T11:56:12.956Z,46.94
2022-09-24T11:58:45.053Z,46.75
2022-09-24T12:01:16.499Z,46.66
2022-09-24T12:03:48.562Z,46.71
2022-09-24T12:06:19.134Z,46.76
2022-09-24T12:08:52.375Z,46.81
2022-09-24T12:11:28.241Z,46.88
2022-09-24T12:13:58.249Z,46.57
2022-09-24T12:16:28.701Z,46.67
2022-09-24T12:19:00.013Z,46.47
2022-09-24T12:21:32.119Z,46.51
2022-09-24T12:24:05.171Z,46.62
2022-09-24T12:26:38.564Z,46.44
2022-09-24T12:29:54.353Z,46.40
2022-09-24T12:32:44.246Z,46.31
2022-09-24T12:35:20.410Z,46.21
2022-09-24T12:37:50.398Z,45.95
2022-09-24T12:40:36.785Z,46.11
2022-09-24T12:43:24.498Z,46.04
2022-09-24T12:45:57.336Z,46.22
2022-09-24T12:48:25.980Z,46.27
2022-09-24T12:50:59.325Z,46.00
2022-09-24T12:53:34.783Z,46.24
2022-09-24T12:56:04.446Z,45.31
2022-09-24T12:58:39.628Z,45.90
2022-09-24T13:01:13.927Z,45.69
2022-09-24T13:03:46.927Z,46.04
2022-09-24T13:06:31.158Z,45.83
2022-09-24T13:08:59.567Z,45.88
2022-09-24T13:11:33.605Z,45.72
2022-09-24T13:14:09.750Z,45.92
2022-09-24T13:16:41.308Z,45.22
2022-09-24T13:19:26.239Z,45.61
2022-09-24T13:21:56.264Z,45.42
2022-09-24T13:24:30.351Z,45.47
2022-09-24T13:27:11.657Z,45.83
2022-09-24T13:29:41.982Z,45.60
2022-09-24T13:32:10.458Z,45.52
2022-09-24T13:34:38.919Z,45.89
2022-09-24T13:37:15.384Z,45.61
2022-09-24T13:39:46.062Z,46.02
2022-09-24T13:42:19.548Z,45.60
2022-09-24T13:44:51.280Z,45.92
2022-09-24T13:47:31.165Z,45.35
2022-09-24T13:50:10.463Z,45.65
2022-09-24T13:52:42.841Z,45.38
2022-09-24T13:55:18.214Z,45.28
2022-09-24T13:57:47.858Z,45.26
2022-09-24T14:00:20.904Z,45.57
2022-09-24T14:03:02.508Z,45.16
2022-09-24T14:05:31.852Z,45.29
2022-09-24T14:08:04.700Z,44.86
2022-09-24T14:10:33.570Z,45.52
2022-09-24T14:13:19.361Z,45.03
2022-09-24T14:15:57.378Z,45.18
2022-09-24T14:18:26.790Z,45.17
2022-09-24T14:20:57.908Z,45.52
2022-09-24T14:23:28.345Z,45.37
2022-09-24T14:25:56.798Z,45.39
2022-09-24T14:28:25.318Z,45.36
2022-09-24T14:30:56.825Z,45.45
2022-09-24T14:33:27.490Z,45.43
2022-09-24T14:35:57.041Z,45.38
2022-09-24T14:38:26.844Z,45.68
2022-09-24T14:40:57.128Z,46.00
2022-09-24T14:43:31.607Z,45.63
2022-09-24T14:46:07.131Z,45.80
2022-09-24T14:48:35.966Z,45.30
2022-09-24T14:51:04.512Z,45.80
2022-09-24T14:53:34.741Z,45.74
2022-09-24T14:56:19.037Z,45.77
2022-09-24T14:58:47.600Z,45.64
2022-09-24T15:01:36.491Z,45.49
2022-09-24T15:04:26.187Z,45.46
2022-09-24T15:07:18.774Z,45.83
2022-09-24T15:10:08.468Z,45.70
2022-09-24T15:12:57.300Z,45.51
2022-09-24T15:15:46.369Z,45.38
2022-09-24T15:18:36.710Z,45.20
2022-09-24T15:21:25.459Z,45.60
2022-09-24T15:24:14.177Z,45.51
2022-09-24T15:27:04.202Z,45.51
2022-09-24T15:29:54.583Z,45.55
2022-09-24T15:32:44.407Z,45.68
2022-09-24T15:35:34.923Z,45.59
2022-09-24T15:38:23.695Z,45.48
2022-09-24T15:41:12.551Z,45.29
2022-09-24T15:44:01.886Z,45.14
2022-09-24T15:46:53.238Z,45.18
2022-09-24T16:50:30.205Z,45.11
2022-09-24T16:53:19.112Z,44.83
2022-09-24T16:56:08.864Z,45.23
2022-09-24T16:58:58.147Z,45.58
2022-09-24T17:01:47.025Z,45.32
2022-09-24T17:04:36.146Z,45.19
2022-09-24T17:07:05.917Z,45.61
2022-09-24T17:09:51.936Z,45.51
2022-09-24T17:12:20.357Z,45.42
2022-09-24T17:14:48.891Z,45.49
2022-09-24T17:17:17.411Z,45.15
2022-09-24T17:19:45.850Z,45.59
2022-09-24T17:22:34.758Z,45.45
2022-09-24T17:25:03.469Z,45.35
2022-09-24T17:27:32.161Z,45.44
2022-09-24T17:30:00.667Z,45.67
2022-09-24T17:32:31.855Z,44.95
2022-09-24T17:35:00.259Z,45.18
2022-09-24T17:37:28.895Z,45.22
2022-09-24T17:39:58.832Z,45.36
2022-09-24T17:42:27.329Z,45.79
2022-09-24T17:44:55.916Z,45.69
2022-09-24T17:47:44.305Z,45.37
2022-09-24T17:50:12.810Z,45.54
2022-09-24T17:52:41.227Z,45.72
2022-09-24T17:55:11.330Z,45.88
2022-09-24T17:57:39.727Z,46.01
2022-09-24T18:00:10.378Z,46.46
2022-09-24T18:02:39.200Z,45.55
2022-09-24T18:05:10.929Z,45.41
2022-09-24T18:07:39.349Z,45.96
2022-09-24T18:10:10.301Z,46.40
2022-09-24T18:12:38.704Z,45.57
2022-09-24T18:15:10.203Z,45.45
2022-09-24T18:17:38.663Z,44.98
2022-09-24T18:20:08.578Z,45.67
2022-09-24T18:22:37.012Z,45.47
2022-09-24T18:25:06.400Z,46.06
2022-09-24T18:27:38.054Z,45.52
2022-09-24T18:30:09.157Z,45.21
2022-09-24T18:32:40.133Z,45.19
2022-09-24T18:35:11.689Z,44.91
2022-09-24T18:37:40.127Z,44.90
2022-09-24T18:40:12.309Z,45.37
2022-09-24T18:42:42.139Z,45.02
2022-09-24T18:45:11.803Z,45.82
2022-09-24T18:47:40.270Z,45.03
2022-09-24T18:50:10.251Z,45.56
2022-09-24T18:52:38.685Z,45.88
2022-09-24T18:55:10.399Z,46.13
2022-09-24T18:57:38.884Z,45.25
2022-09-24T19:00:31.434Z,45.46
2022-09-24T19:03:00.304Z,45.61
2022-09-24T19:05:29.753Z,45.75
2022-09-24T19:07:59.194Z,45.86
2022-09-24T19:10:27.739Z,46.29
2022-09-24T19:12:56.930Z,45.97
2022-09-24T19:15:26.773Z,45.87
2022-09-24T19:17:55.334Z,45.69
2022-09-24T19:20:23.699Z,46.16
2022-09-24T19:22:59.990Z,46.48
2022-09-24T19:25:28.754Z,46.11
2022-09-24T19:27:58.041Z,46.81
2022-09-24T19:30:28.688Z,46.26
2022-09-24T19:32:57.728Z,46.22
2022-09-24T19:35:26.941Z,45.67
2022-09-24T19:37:55.436Z,45.87
2022-09-24T19:40:24.019Z,46.17
2022-09-24T19:42:52.829Z,46.65
2022-09-24T19:45:21.310Z,46.72
2022-09-24T19:47:52.052Z,46.22
2022-09-24T19:50:20.533Z,46.43
2022-09-24T19:52:48.947Z,46.96
2022-09-24T19:55:17.717Z,46.61
2022-09-24T19:57:46.104Z,46.74
2022-09-24T20:00:15.652Z,46.71
2022-09-24T20:02:46.716Z,46.55
2022-09-24T20:05:16.604Z,46.84
2022-09-24T20:07:45.892Z,46.89
2022-09-24T20:10:14.708Z,46.28
2022-09-24T20:12:46.737Z,46.31
2022-09-24T20:15:15.409Z,46.53
2022-09-24T20:17:43.801Z,46.52
2022-09-24T20:20:12.406Z,46.72
2022-09-24T20:22:42.359Z,46.76
2022-09-24T20:25:12.993Z,46.59
2022-09-24T20:27:52.420Z,46.34
2022-09-24T20:30:21.750Z,46.52
2022-09-24T20:32:50.618Z,46.20
2022-09-24T20:35:19.218Z,46.36
2022-09-24T20:37:49.466Z,46.42
2022-09-24T20:40:18.158Z,45.99
2022-09-24T20:42:46.761Z,46.18
2022-09-24T20:45:16.346Z,46.25
2022-09-24T20:47:44.796Z,46.34
2022-09-24T20:50:13.387Z,45.84
2022-09-24T20:52:41.903Z,46.07
2022-09-24T20:55:12.625Z,46.04
2022-09-24T20:57:42.383Z,45.86
2022-09-24T21:00:15.078Z,45.71
2022-09-24T21:02:44.584Z,46.06
2022-09-24T21:05:13.169Z,45.95
2022-09-24T21:07:42.835Z,45.71
2022-09-24T21:10:13.530Z,45.83
2022-09-24T21:12:43.630Z,45.80
2022-09-24T21:15:13.888Z,45.86
2022-09-24T21:17:59.388Z,45.81
2022-09-24T21:20:33.252Z,45.94
2022-09-24T21:23:01.723Z,46.08
2022-09-24T21:25:53.299Z,45.85
2022-09-24T21:28:22.867Z,45.96
2022-09-24T21:30:59.898Z,45.66
2022-09-24T21:33:28.407Z,45.66
2022-09-24T21:35:58.722Z,45.66
2022-09-24T21:38:27.222Z,45.79
2022-09-24T21:40:57.428Z,45.65
2022-09-24T21:43:29.742Z,45.51
2022-09-24T21:46:02.021Z,45.48
2022-09-24T21:48:31.408Z,45.43
2022-09-24T21:51:04.543Z,45.77
2022-09-24T21:53:33.559Z,45.72
2022-09-24T21:56:03.782Z,45.39
2022-09-24T21:58:32.566Z,45.42
2022-09-24T22:01:04.751Z,45.41
2022-09-24T22:03:33.847Z,45.36
2022-09-24T22:06:04.132Z,45.39
2022-09-24T22:08:32.742Z,45.37
2022-09-24T22:11:04.461Z,45.29
2022-09-24T22:13:33.729Z,45.34
2022-09-24T22:16:02.685Z,45.47
2022-09-24T22:18:31.412Z,45.48
2022-09-24T22:20:59.844Z,45.51
2022-09-24T22:23:28.356Z,45.18
2022-09-24T22:25:57.174Z,45.63
2022-09-24T22:28:27.447Z,45.54
2022-09-24T22:30:57.864Z,45.22
2022-09-24T22:33:44.102Z,45.14
2022-09-24T22:36:12.668Z,45.27
2022-09-24T22:38:41.096Z,45.09
2022-09-24T22:41:11.187Z,45.09
2022-09-24T22:43:40.958Z,45.34
2022-09-24T22:46:11.306Z,45.20
2022-09-24T22:48:40.024Z,45.24
2022-09-24T22:51:09.994Z,45.01
2022-09-24T22:53:39.844Z,45.00
2022-09-24T22:56:10.143Z,45.05
2022-09-24T22:58:45.075Z,45.35
2022-09-24T23:01:15.502Z,44.83
2022-09-24T23:03:44.376Z,44.82
2022-09-24T23:06:13.079Z,44.75
2022-09-24T23:08:42.794Z,45.02
2022-09-24T23:11:12.283Z,45.19
2022-09-24T23:13:43.107Z,44.85
2022-09-24T23:16:12.911Z,44.90
2022-09-24T23:18:42.040Z,44.81
2022-09-24T23:21:12.466Z,45.03
2022-09-24T23:23:40.974Z,45.08
2022-09-24T23:26:16.178Z,44.79
2022-09-24T23:28:53.037Z,44.88
2022-09-24T23:31:22.869Z,45.18
2022-09-24T23:33:51.399Z,44.92
2022-09-24T23:36:19.946Z,45.02
2022-09-24T23:38:48.381Z,44.57
2022-09-24T23:41:16.896Z,44.21
2022-09-24T23:43:45.868Z,43.87
2022-09-24T23:46:15.998Z,44.10
2022-09-24T23:48:44.665Z,44.14
2022-09-24T23:51:13.119Z,44.41
2022-09-24T23:53:41.835Z,44.06
2022-09-24T23:56:10.620Z,44.12
2022-09-24T23:58:39.546Z,43.96
